sensor_id;sensor_type;location;lat;lon;timestamp;pressure;altitude;pressure_sealevel;temperature;humidity
79378;BME280;68959;53.132;17.984;2023-05-07T00:00:21;101875.55;;;6.10;80.93
79378;BME280;68959;53.132;17.984;2023-05-07T00:03:07;101875.68;;;6.04;81.03
79378;BME280;68959;53.132;17.984;2023-05-07T00:05:33;101875.14;;;5.96;81.15
79378;BME280;68959;53.132;17.984;2023-05-07T00:07:59;101875.66;;;5.87;81.23
79378;BME280;68959;53.132;17.984;2023-05-07T00:10:25;101872.52;;;5.81;81.13
79378;BME280;68959;53.132;17.984;2023-05-07T00:12:51;101869.23;;;5.76;81.28
79378;BME280;68959;53.132;17.984;2023-05-07T00:15:17;101869.65;;;5.71;81.55
79378;BME280;68959;53.132;17.984;2023-05-07T00:17:43;101870.61;;;5.66;81.21
79378;BME280;68959;53.132;17.984;2023-05-07T00:20:09;101871.72;;;5.60;81.47
79378;BME280;68959;53.132;17.984;2023-05-07T00:22:35;101873.70;;;5.57;81.39
79378;BME280;68959;53.132;17.984;2023-05-07T00:25:01;101876.57;;;5.53;81.51
79378;BME280;68959;53.132;17.984;2023-05-07T00:27:27;101876.23;;;5.46;81.61
79378;BME280;68959;53.132;17.984;2023-05-07T00:29:53;101880.18;;;5.41;81.64
79378;BME280;68959;53.132;17.984;2023-05-07T00:32:19;101882.04;;;5.35;81.80
79378;BME280;68959;53.132;17.984;2023-05-07T00:34:45;101884.99;;;5.28;81.87
79378;BME280;68959;53.132;17.984;2023-05-07T00:37:11;101881.73;;;5.22;81.84
79378;BME280;68959;53.132;17.984;2023-05-07T00:39:37;101885.35;;;5.19;81.92
79378;BME280;68959;53.132;17.984;2023-05-07T00:42:03;101887.71;;;5.13;82.02
79378;BME280;68959;53.132;17.984;2023-05-07T00:44:29;101891.27;;;5.11;82.04
79378;BME280;68959;53.132;17.984;2023-05-07T00:46:59;101894.09;;;5.08;82.15
79378;BME280;68959;53.132;17.984;2023-05-07T00:49:43;101894.64;;;5.04;82.17
79378;BME280;68959;53.132;17.984;2023-05-07T00:52:13;101894.76;;;5.01;82.24
79378;BME280;68959;53.132;17.984;2023-05-07T00:54:40;101900.10;;;4.96;82.32
79378;BME280;68959;53.132;17.984;2023-05-07T00:57:06;101900.52;;;4.89;82.27
79378;BME280;68959;53.132;17.984;2023-05-07T00:59:32;101904.83;;;4.85;82.46
79378;BME280;68959;53.132;17.984;2023-05-07T01:01:59;101905.95;;;4.81;82.62
79378;BME280;68959;53.132;17.984;2023-05-07T01:04:26;101906.63;;;4.79;82.85
79378;BME280;68959;53.132;17.984;2023-05-07T01:06:53;101898.06;;;4.76;82.80
79378;BME280;68959;53.132;17.984;2023-05-07T01:09:22;101899.36;;;4.77;82.63
79378;BME280;68959;53.132;17.984;2023-05-07T01:11:50;101902.65;;;4.76;82.63
79378;BME280;68959;53.132;17.984;2023-05-07T01:14:18;101900.70;;;4.70;82.83
79378;BME280;68959;53.132;17.984;2023-05-07T01:16:44;101893.02;;;4.61;82.98
79378;BME280;68959;53.132;17.984;2023-05-07T01:19:11;101899.54;;;4.59;82.96
79378;BME280;68959;53.132;17.984;2023-05-07T01:21:44;101901.05;;;4.55;82.91
79378;BME280;68959;53.132;17.984;2023-05-07T01:24:11;101903.30;;;4.51;82.98
79378;BME280;68959;53.132;17.984;2023-05-07T01:26:38;101906.06;;;4.47;83.09
79378;BME280;68959;53.132;17.984;2023-05-07T01:29:04;101908.73;;;4.43;83.01
79378;BME280;68959;53.132;17.984;2023-05-07T01:31:32;101914.65;;;4.40;83.17
79378;BME280;68959;53.132;17.984;2023-05-07T01:33:59;101912.53;;;4.34;83.11
79378;BME280;68959;53.132;17.984;2023-05-07T01:36:27;101913.38;;;4.29;83.13
79378;BME280;68959;53.132;17.984;2023-05-07T01:38:54;101915.11;;;4.22;83.23
79378;BME280;68959;53.132;17.984;2023-05-07T01:41:24;101924.84;;;4.17;83.29
79378;BME280;68959;53.132;17.984;2023-05-07T01:43:51;101925.27;;;4.12;83.34
79378;BME280;68959;53.132;17.984;2023-05-07T01:46:18;101931.67;;;4.07;83.22
79378;BME280;68959;53.132;17.984;2023-05-07T01:48:45;101934.02;;;4.04;83.10
79378;BME280;68959;53.132;17.984;2023-05-07T01:51:12;101935.06;;;3.99;83.12
79378;BME280;68959;53.132;17.984;2023-05-07T01:53:39;101931.94;;;3.96;83.25
79378;BME280;68959;53.132;17.984;2023-05-07T01:56:06;101928.24;;;3.93;83.10
79378;BME280;68959;53.132;17.984;2023-05-07T01:58:33;101929.86;;;3.88;83.26
79378;BME280;68959;53.132;17.984;2023-05-07T02:00:59;101935.00;;;3.85;83.35
79378;BME280;68959;53.132;17.984;2023-05-07T02:03:25;101936.10;;;3.80;83.43
79378;BME280;68959;53.132;17.984;2023-05-07T02:05:56;101938.54;;;3.75;83.49
79378;BME280;68959;53.132;17.984;2023-05-07T02:08:42;101937.81;;;3.68;83.34
79378;BME280;68959;53.132;17.984;2023-05-07T02:11:09;101936.84;;;3.63;83.45
79378;BME280;68959;53.132;17.984;2023-05-07T02:13:36;101938.45;;;3.56;83.63
79378;BME280;68959;53.132;17.984;2023-05-07T02:16:02;101934.90;;;3.49;83.45
79378;BME280;68959;53.132;17.984;2023-05-07T02:18:28;101937.16;;;3.44;83.54
79378;BME280;68959;53.132;17.984;2023-05-07T02:20:54;101935.73;;;3.40;83.59
79378;BME280;68959;53.132;17.984;2023-05-07T02:23:20;101943.39;;;3.36;83.55
79378;BME280;68959;53.132;17.984;2023-05-07T02:25:46;101944.77;;;3.31;83.74
79378;BME280;68959;53.132;17.984;2023-05-07T02:28:12;101949.25;;;3.25;83.58
79378;BME280;68959;53.132;17.984;2023-05-07T02:30:47;101951.23;;;3.20;83.76
79378;BME280;68959;53.132;17.984;2023-05-07T02:33:13;101949.90;;;3.15;83.91
79378;BME280;68959;53.132;17.984;2023-05-07T02:35:39;101951.02;;;3.09;83.65
79378;BME280;68959;53.132;17.984;2023-05-07T02:38:06;101955.96;;;3.05;83.64
79378;BME280;68959;53.132;17.984;2023-05-07T02:40:32;101952.43;;;3.01;83.59
79378;BME280;68959;53.132;17.984;2023-05-07T02:42:59;101954.66;;;2.98;83.55
79378;BME280;68959;53.132;17.984;2023-05-07T02:45:25;101957.02;;;2.94;83.65
79378;BME280;68959;53.132;17.984;2023-05-07T02:47:52;101957.59;;;2.89;83.72
79378;BME280;68959;53.132;17.984;2023-05-07T02:50:18;101952.27;;;2.84;83.72
79378;BME280;68959;53.132;17.984;2023-05-07T02:52:44;101954.36;;;2.80;83.79
79378;BME280;68959;53.132;17.984;2023-05-07T02:55:10;101954.94;;;2.79;84.04
79378;BME280;68959;53.132;17.984;2023-05-07T02:57:36;101957.73;;;2.77;83.97
79378;BME280;68959;53.132;17.984;2023-05-07T03:00:16;101955.64;;;2.74;84.03
79378;BME280;68959;53.132;17.984;2023-05-07T03:02:49;101957.89;;;2.74;84.11
79378;BME280;68959;53.132;17.984;2023-05-07T03:05:15;101958.27;;;2.74;84.19
79378;BME280;68959;53.132;17.984;2023-05-07T03:07:41;101960.55;;;2.74;84.08
79378;BME280;68959;53.132;17.984;2023-05-07T03:10:10;101969.18;;;2.72;83.98
79378;BME280;68959;53.132;17.984;2023-05-07T03:12:37;101969.05;;;2.72;84.07
79378;BME280;68959;53.132;17.984;2023-05-07T03:15:03;101967.03;;;2.72;84.23
79378;BME280;68959;53.132;17.984;2023-05-07T03:17:29;101976.61;;;2.71;84.26
79378;BME280;68959;53.132;17.984;2023-05-07T03:19:55;101979.98;;;2.72;83.91
79378;BME280;68959;53.132;17.984;2023-05-07T03:22:21;101980.89;;;2.72;84.09
79378;BME280;68959;53.132;17.984;2023-05-07T03:24:47;101977.66;;;2.71;83.90
79378;BME280;68959;53.132;17.984;2023-05-07T03:27:13;101980.30;;;2.72;83.94
79378;BME280;68959;53.132;17.984;2023-05-07T03:29:39;101985.13;;;2.74;84.03
79378;BME280;68959;53.132;17.984;2023-05-07T03:32:05;101983.36;;;2.77;83.84
79378;BME280;68959;53.132;17.984;2023-05-07T03:34:31;101988.16;;;2.78;83.93
79378;BME280;68959;53.132;17.984;2023-05-07T03:36:57;101987.77;;;2.78;83.83
79378;BME280;68959;53.132;17.984;2023-05-07T03:39:23;101994.54;;;2.78;83.75
79378;BME280;68959;53.132;17.984;2023-05-07T03:41:49;101999.63;;;2.78;83.78
79378;BME280;68959;53.132;17.984;2023-05-07T03:44:15;101999.32;;;2.81;83.63
79378;BME280;68959;53.132;17.984;2023-05-07T03:46:41;101999.37;;;2.85;83.77
79378;BME280;68959;53.132;17.984;2023-05-07T03:49:09;101995.73;;;2.89;83.79
79378;BME280;68959;53.132;17.984;2023-05-07T03:51:35;101998.95;;;2.93;83.72
79378;BME280;68959;53.132;17.984;2023-05-07T03:54:02;102004.25;;;2.98;83.51
79378;BME280;68959;53.132;17.984;2023-05-07T03:56:28;102008.75;;;3.01;83.54
79378;BME280;68959;53.132;17.984;2023-05-07T03:58:56;102008.51;;;3.04;83.60
79378;BME280;68959;53.132;17.984;2023-05-07T04:01:22;102010.05;;;3.08;83.62
79378;BME280;68959;53.132;17.984;2023-05-07T04:03:48;102015.59;;;3.13;83.34
79378;BME280;68959;53.132;17.984;2023-05-07T04:06:15;102013.18;;;3.16;83.27
79378;BME280;68959;53.132;17.984;2023-05-07T04:08:43;102016.52;;;3.18;83.02
79378;BME280;68959;53.132;17.984;2023-05-07T04:11:09;102024.71;;;3.20;83.00
79378;BME280;68959;53.132;17.984;2023-05-07T04:13:36;102029.18;;;3.22;82.69
79378;BME280;68959;53.132;17.984;2023-05-07T04:16:03;102027.44;;;3.23;82.85
79378;BME280;68959;53.132;17.984;2023-05-07T04:18:29;102028.80;;;3.28;82.64
79378;BME280;68959;53.132;17.984;2023-05-07T04:20:55;102032.61;;;3.34;82.78
79378;BME280;68959;53.132;17.984;2023-05-07T04:23:21;102033.05;;;3.39;82.67
79378;BME280;68959;53.132;17.984;2023-05-07T04:25:47;102035.65;;;3.43;82.56
79378;BME280;68959;53.132;17.984;2023-05-07T04:28:20;102035.46;;;3.47;82.70
79378;BME280;68959;53.132;17.984;2023-05-07T04:30:47;102038.21;;;3.54;82.68
79378;BME280;68959;53.132;17.984;2023-05-07T04:33:14;102043.64;;;3.65;82.42
79378;BME280;68959;53.132;17.984;2023-05-07T04:35:42;102044.17;;;3.75;82.26
79378;BME280;68959;53.132;17.984;2023-05-07T04:38:08;102043.52;;;3.85;82.15
79378;BME280;68959;53.132;17.984;2023-05-07T04:40:35;102042.06;;;3.97;82.11
79378;BME280;68959;53.132;17.984;2023-05-07T04:43:02;102045.11;;;4.08;82.18
79378;BME280;68959;53.132;17.984;2023-05-07T04:45:30;102050.19;;;4.20;81.96
79378;BME280;68959;53.132;17.984;2023-05-07T04:47:56;102051.82;;;4.29;81.86
79378;BME280;68959;53.132;17.984;2023-05-07T04:50:21;102053.91;;;4.38;81.80
79378;BME280;68959;53.132;17.984;2023-05-07T04:52:50;102054.55;;;4.49;81.84
79378;BME280;68959;53.132;17.984;2023-05-07T04:55:17;102056.91;;;4.63;81.73
79378;BME280;68959;53.132;17.984;2023-05-07T04:57:43;102060.67;;;4.76;81.67
79378;BME280;68959;53.132;17.984;2023-05-07T05:00:10;102053.73;;;4.88;81.58
79378;BME280;68959;53.132;17.984;2023-05-07T05:02:37;102060.36;;;5.04;81.30
79378;BME280;68959;53.132;17.984;2023-05-07T05:05:03;102062.41;;;5.18;81.27
79378;BME280;68959;53.132;17.984;2023-05-07T05:07:30;102061.17;;;5.30;80.78
79378;BME280;68959;53.132;17.984;2023-05-07T05:09:56;102060.65;;;5.40;80.39
79378;BME280;68959;53.132;17.984;2023-05-07T05:12:23;102060.73;;;5.53;80.49
79378;BME280;68959;53.132;17.984;2023-05-07T05:14:50;102068.63;;;5.66;80.17
79378;BME280;68959;53.132;17.984;2023-05-07T05:17:16;102067.83;;;5.79;79.96
79378;BME280;68959;53.132;17.984;2023-05-07T05:19:42;102068.16;;;5.92;79.66
79378;BME280;68959;53.132;17.984;2023-05-07T05:22:09;102064.14;;;6.06;79.46
79378;BME280;68959;53.132;17.984;2023-05-07T05:24:35;102070.56;;;6.19;79.37
79378;BME280;68959;53.132;17.984;2023-05-07T05:27:01;102072.14;;;6.32;79.06
79378;BME280;68959;53.132;17.984;2023-05-07T05:29:28;102067.27;;;6.45;78.71
79378;BME280;68959;53.132;17.984;2023-05-07T05:31:54;102068.11;;;6.60;78.82
79378;BME280;68959;53.132;17.984;2023-05-07T05:34:21;102075.11;;;6.74;78.41
79378;BME280;68959;53.132;17.984;2023-05-07T05:36:48;102076.31;;;6.87;78.18
79378;BME280;68959;53.132;17.984;2023-05-07T05:39:14;102075.90;;;7.02;77.89
79378;BME280;68959;53.132;17.984;2023-05-07T05:41:40;102072.80;;;7.14;77.31
79378;BME280;68959;53.132;17.984;2023-05-07T05:44:06;102069.96;;;7.28;77.21
79378;BME280;68959;53.132;17.984;2023-05-07T05:46:32;102075.09;;;7.41;77.00
79378;BME280;68959;53.132;17.984;2023-05-07T05:48:58;102076.23;;;7.51;76.71
79378;BME280;68959;53.132;17.984;2023-05-07T05:51:25;102075.42;;;7.59;76.18
79378;BME280;68959;53.132;17.984;2023-05-07T05:53:52;102074.40;;;7.67;76.27
79378;BME280;68959;53.132;17.984;2023-05-07T05:56:18;102077.64;;;7.80;76.21
79378;BME280;68959;53.132;17.984;2023-05-07T05:58:44;102076.82;;;7.96;75.83
79378;BME280;68959;53.132;17.984;2023-05-07T06:01:10;102081.29;;;8.07;75.64
79378;BME280;68959;53.132;17.984;2023-05-07T06:03:37;102081.19;;;8.21;75.58
79378;BME280;68959;53.132;17.984;2023-05-07T06:06:06;102085.17;;;8.37;75.00
79378;BME280;68959;53.132;17.984;2023-05-07T06:08:32;102080.95;;;8.48;74.12
79378;BME280;68959;53.132;17.984;2023-05-07T06:10:59;102085.41;;;8.56;74.26
79378;BME280;68959;53.132;17.984;2023-05-07T06:13:26;102082.61;;;8.66;74.15
79378;BME280;68959;53.132;17.984;2023-05-07T06:15:52;102078.11;;;8.75;73.86
79378;BME280;68959;53.132;17.984;2023-05-07T06:18:17;102078.23;;;8.88;73.75
79378;BME280;68959;53.132;17.984;2023-05-07T06:20:43;102080.23;;;9.02;73.42
79378;BME280;68959;53.132;17.984;2023-05-07T06:23:14;102081.39;;;9.15;72.08
79378;BME280;68959;53.132;17.984;2023-05-07T06:25:40;102084.17;;;9.26;71.88
79378;BME280;68959;53.132;17.984;2023-05-07T06:28:06;102083.86;;;9.38;72.03
79378;BME280;68959;53.132;17.984;2023-05-07T06:30:34;102082.23;;;9.54;71.37
79378;BME280;68959;53.132;17.984;2023-05-07T06:33:00;102083.63;;;9.60;70.60
79378;BME280;68959;53.132;17.984;2023-05-07T06:35:27;102089.45;;;9.70;70.88
79378;BME280;68959;53.132;17.984;2023-05-07T06:37:53;102084.96;;;9.88;70.69
79378;BME280;68959;53.132;17.984;2023-05-07T06:40:22;102081.51;;;10.24;69.53
79378;BME280;68959;53.132;17.984;2023-05-07T06:42:48;102080.33;;;10.69;66.46
79378;BME280;68959;53.132;17.984;2023-05-07T06:45:32;102081.69;;;10.95;62.93
79378;BME280;68959;53.132;17.984;2023-05-07T06:47:59;102083.30;;;11.20;63.80
79378;BME280;68959;53.132;17.984;2023-05-07T06:50:25;102085.99;;;11.53;62.82
79378;BME280;68959;53.132;17.984;2023-05-07T06:52:54;102084.84;;;11.81;60.84
79378;BME280;68959;53.132;17.984;2023-05-07T06:55:20;102086.23;;;12.01;61.58
79378;BME280;68959;53.132;17.984;2023-05-07T06:57:46;102087.87;;;12.31;62.59
79378;BME280;68959;53.132;17.984;2023-05-07T07:00:13;102090.64;;;12.73;62.04
79378;BME280;68959;53.132;17.984;2023-05-07T07:02:47;102092.02;;;13.17;60.76
79378;BME280;68959;53.132;17.984;2023-05-07T07:05:13;102093.45;;;13.56;60.59
79378;BME280;68959;53.132;17.984;2023-05-07T07:07:39;102096.03;;;14.00;60.11
79378;BME280;68959;53.132;17.984;2023-05-07T07:10:06;102093.16;;;14.43;57.53
79378;BME280;68959;53.132;17.984;2023-05-07T07:12:32;102094.11;;;14.68;56.50
79378;BME280;68959;53.132;17.984;2023-05-07T07:14:58;102090.50;;;14.91;55.53
79378;BME280;68959;53.132;17.984;2023-05-07T07:17:24;102094.30;;;15.10;53.40
79378;BME280;68959;53.132;17.984;2023-05-07T07:19:49;102092.70;;;15.03;49.72
79378;BME280;68959;53.132;17.984;2023-05-07T07:22:16;102095.59;;;15.03;51.96
79378;BME280;68959;53.132;17.984;2023-05-07T07:24:43;102097.44;;;15.21;50.04
79378;BME280;68959;53.132;17.984;2023-05-07T07:27:09;102096.21;;;15.48;49.44
79378;BME280;68959;53.132;17.984;2023-05-07T07:29:35;102088.61;;;15.63;50.06
79378;BME280;68959;53.132;17.984;2023-05-07T07:32:01;102092.89;;;15.97;48.31
79378;BME280;68959;53.132;17.984;2023-05-07T07:34:27;102093.02;;;16.21;45.97
79378;BME280;68959;53.132;17.984;2023-05-07T07:36:53;102094.65;;;16.24;44.58
79378;BME280;68959;53.132;17.984;2023-05-07T07:39:19;102096.71;;;16.34;43.70
79378;BME280;68959;53.132;17.984;2023-05-07T07:41:46;102097.63;;;16.43;43.42
79378;BME280;68959;53.132;17.984;2023-05-07T07:44:12;102096.27;;;16.59;43.00
79378;BME280;68959;53.132;17.984;2023-05-07T07:46:39;102101.75;;;16.78;42.74
79378;BME280;68959;53.132;17.984;2023-05-07T07:49:06;102095.74;;;17.02;42.64
79378;BME280;68959;53.132;17.984;2023-05-07T07:51:32;102094.99;;;17.42;44.81
79378;BME280;68959;53.132;17.984;2023-05-07T07:53:58;102097.63;;;17.95;44.60
79378;BME280;68959;53.132;17.984;2023-05-07T07:56:25;102095.60;;;18.36;39.10
79378;BME280;68959;53.132;17.984;2023-05-07T07:58:51;102095.67;;;18.53;39.74
79378;BME280;68959;53.132;17.984;2023-05-07T08:01:18;102099.30;;;18.63;36.20
79378;BME280;68959;53.132;17.984;2023-05-07T08:03:45;102095.80;;;18.67;37.02
79378;BME280;68959;53.132;17.984;2023-05-07T08:06:12;102098.46;;;18.69;34.08
79378;BME280;68959;53.132;17.984;2023-05-07T08:08:38;102099.90;;;18.54;32.72
79378;BME280;68959;53.132;17.984;2023-05-07T08:11:04;102099.23;;;18.58;33.74
79378;BME280;68959;53.132;17.984;2023-05-07T08:13:31;102097.50;;;18.87;35.63
79378;BME280;68959;53.132;17.984;2023-05-07T08:15:58;102102.63;;;19.32;34.93
79378;BME280;68959;53.132;17.984;2023-05-07T08:18:25;102097.42;;;19.62;34.05
79378;BME280;68959;53.132;17.984;2023-05-07T08:20:51;102097.35;;;20.02;33.55
79378;BME280;68959;53.132;17.984;2023-05-07T08:23:20;102102.63;;;20.48;33.89
79378;BME280;68959;53.132;17.984;2023-05-07T08:25:48;102093.39;;;20.64;29.78
79378;BME280;68959;53.132;17.984;2023-05-07T08:28:15;102096.77;;;20.63;30.46
79378;BME280;68959;53.132;17.984;2023-05-07T08:30:41;102097.29;;;21.00;32.18
79378;BME280;68959;53.132;17.984;2023-05-07T08:33:09;102095.36;;;21.50;31.10
79378;BME280;68959;53.132;17.984;2023-05-07T08:35:35;102095.85;;;21.82;29.88
79378;BME280;68959;53.132;17.984;2023-05-07T08:38:01;102096.57;;;22.20;30.88
79378;BME280;68959;53.132;17.984;2023-05-07T08:40:28;102094.36;;;22.40;26.14
79378;BME280;68959;53.132;17.984;2023-05-07T08:42:55;102103.80;;;22.30;28.13
79378;BME280;68959;53.132;17.984;2023-05-07T08:45:22;102099.14;;;22.69;28.58
79378;BME280;68959;53.132;17.984;2023-05-07T08:47:51;102102.52;;;23.00;26.09
79378;BME280;68959;53.132;17.984;2023-05-07T08:50:20;102099.88;;;23.12;25.98
79378;BME280;68959;53.132;17.984;2023-05-07T08:52:47;102097.30;;;23.45;27.24
79378;BME280;68959;53.132;17.984;2023-05-07T08:55:13;102097.29;;;23.96;25.69
79378;BME280;68959;53.132;17.984;2023-05-07T08:57:41;102102.04;;;24.16;24.87
79378;BME280;68959;53.132;17.984;2023-05-07T09:00:08;102098.20;;;24.23;23.53
79378;BME280;68959;53.132;17.984;2023-05-07T09:02:35;102103.56;;;24.31;23.51
79378;BME280;68959;53.132;17.984;2023-05-07T09:05:02;102105.27;;;24.31;23.52
79378;BME280;68959;53.132;17.984;2023-05-07T09:07:30;102103.61;;;24.54;22.97
79378;BME280;68959;53.132;17.984;2023-05-07T09:09:56;102105.16;;;24.80;23.64
79378;BME280;68959;53.132;17.984;2023-05-07T09:12:23;102104.20;;;25.05;22.18
79378;BME280;68959;53.132;17.984;2023-05-07T09:14:49;102104.39;;;25.20;22.49
79378;BME280;68959;53.132;17.984;2023-05-07T09:17:16;102107.37;;;25.70;21.86
79378;BME280;68959;53.132;17.984;2023-05-07T09:19:44;102108.30;;;25.75;20.66
79378;BME280;68959;53.132;17.984;2023-05-07T09:22:10;102096.00;;;25.77;21.26
79378;BME280;68959;53.132;17.984;2023-05-07T09:24:58;102095.16;;;26.10;20.73
79378;BME280;68959;53.132;17.984;2023-05-07T09:27:25;102098.36;;;26.46;20.80
79378;BME280;68959;53.132;17.984;2023-05-07T09:29:52;102089.78;;;26.80;20.70
79378;BME280;68959;53.132;17.984;2023-05-07T09:32:18;102087.40;;;27.46;20.12
79378;BME280;68959;53.132;17.984;2023-05-07T09:34:44;102088.61;;;27.82;19.89
79378;BME280;68959;53.132;17.984;2023-05-07T09:37:12;102089.63;;;28.35;19.34
79378;BME280;68959;53.132;17.984;2023-05-07T09:42:07;102093.26;;;28.99;17.11
79378;BME280;68959;53.132;17.984;2023-05-07T09:44:34;102092.78;;;28.08;17.82
79378;BME280;68959;53.132;17.984;2023-05-07T09:47:04;102095.58;;;27.93;18.03
79378;BME280;68959;53.132;17.984;2023-05-07T09:49:37;102095.20;;;28.37;18.02
79378;BME280;68959;53.132;17.984;2023-05-07T09:52:06;102095.48;;;28.83;17.83
79378;BME280;68959;53.132;17.984;2023-05-07T09:54:35;102095.64;;;29.32;17.43
79378;BME280;68959;53.132;17.984;2023-05-07T09:57:05;102100.04;;;29.81;17.25
79378;BME280;68959;53.132;17.984;2023-05-07T09:59:32;102105.70;;;29.95;15.95
79378;BME280;68959;53.132;17.984;2023-05-07T10:02:01;102109.55;;;29.74;16.15
79378;BME280;68959;53.132;17.984;2023-05-07T10:04:27;102107.61;;;29.03;16.45
79378;BME280;68959;53.132;17.984;2023-05-07T10:06:54;102109.35;;;29.42;16.81
79378;BME280;68959;53.132;17.984;2023-05-07T10:09:22;102109.71;;;29.50;15.82
79378;BME280;68959;53.132;17.984;2023-05-07T10:11:52;102114.52;;;29.19;15.86
79378;BME280;68959;53.132;17.984;2023-05-07T10:14:21;102109.27;;;28.76;16.53
79378;BME280;68959;53.132;17.984;2023-05-07T10:16:48;102108.69;;;29.15;16.50
79378;BME280;68959;53.132;17.984;2023-05-07T10:19:15;102110.10;;;29.16;16.03
79378;BME280;68959;53.132;17.984;2023-05-07T10:21:51;102113.54;;;29.31;16.00
79378;BME280;68959;53.132;17.984;2023-05-07T10:24:26;102114.13;;;28.78;16.58
79378;BME280;68959;53.132;17.984;2023-05-07T10:26:53;102117.13;;;29.43;16.26
79378;BME280;68959;53.132;17.984;2023-05-07T10:34:56;102104.98;;;28.42;17.26
79378;BME280;68959;53.132;17.984;2023-05-07T10:37:24;102114.24;;;29.48;16.42
79378;BME280;68959;53.132;17.984;2023-05-07T10:39:52;102122.92;;;30.24;15.63
79378;BME280;68959;53.132;17.984;2023-05-07T10:42:18;102114.39;;;30.78;15.01
79378;BME280;68959;53.132;17.984;2023-05-07T10:44:48;102106.55;;;30.78;14.77
79378;BME280;68959;53.132;17.984;2023-05-07T10:47:20;102110.44;;;29.96;15.22
79378;BME280;68959;53.132;17.984;2023-05-07T10:52:23;102108.29;;;28.82;16.53
79378;BME280;68959;53.132;17.984;2023-05-07T10:57:44;102109.66;;;29.92;16.39
79378;BME280;68959;53.132;17.984;2023-05-07T11:05:25;102109.86;;;30.55;14.66
79378;BME280;68959;53.132;17.984;2023-05-07T11:08:09;102111.69;;;30.10;15.17
79378;BME280;68959;53.132;17.984;2023-05-07T11:10:54;102115.54;;;30.25;15.24
79378;BME280;68959;53.132;17.984;2023-05-07T11:13:44;102112.38;;;30.71;14.52
79378;BME280;68959;53.132;17.984;2023-05-07T11:16:20;102117.27;;;30.99;14.34
79378;BME280;68959;53.132;17.984;2023-05-07T11:18:54;102118.63;;;30.86;14.19
79378;BME280;68959;53.132;17.984;2023-05-07T11:21:35;102117.66;;;29.29;15.52
79378;BME280;68959;53.132;17.984;2023-05-07T11:24:14;102118.48;;;29.26;16.17
79378;BME280;68959;53.132;17.984;2023-05-07T11:26:54;102114.75;;;29.94;15.67
79378;BME280;68959;53.132;17.984;2023-05-07T11:29:21;102120.34;;;27.88;16.79
79378;BME280;68959;53.132;17.984;2023-05-07T11:31:49;102125.83;;;25.87;18.20
79378;BME280;68959;53.132;17.984;2023-05-07T11:34:24;102118.57;;;26.75;17.85
79378;BME280;68959;53.132;17.984;2023-05-07T11:36:52;102114.88;;;28.75;16.88
79378;BME280;68959;53.132;17.984;2023-05-07T11:39:30;102115.73;;;29.61;15.41
79378;BME280;68959;53.132;17.984;2023-05-07T11:41:57;102110.66;;;30.43;14.80
79378;BME280;68959;53.132;17.984;2023-05-07T11:44:23;102109.99;;;29.67;14.82
79378;BME280;68959;53.132;17.984;2023-05-07T11:46:49;102112.40;;;27.27;16.49
79378;BME280;68959;53.132;17.984;2023-05-07T11:49:16;102122.13;;;25.62;17.89
79378;BME280;68959;53.132;17.984;2023-05-07T11:51:42;102125.73;;;26.09;18.16
79378;BME280;68959;53.132;17.984;2023-05-07T11:54:09;102119.80;;;28.02;17.02
79378;BME280;68959;53.132;17.984;2023-05-07T11:56:37;102112.27;;;29.42;15.69
79378;BME280;68959;53.132;17.984;2023-05-07T11:59:03;102118.06;;;30.18;14.90
79378;BME280;68959;53.132;17.984;2023-05-07T12:01:28;102115.17;;;30.47;14.72
79378;BME280;68959;53.132;17.984;2023-05-07T12:03:55;102121.64;;;27.83;16.61
79378;BME280;68959;53.132;17.984;2023-05-07T12:06:21;102133.48;;;25.92;18.54
79378;BME280;68959;53.132;17.984;2023-05-07T12:08:47;102130.38;;;27.17;17.96
79378;BME280;68959;53.132;17.984;2023-05-07T12:11:15;102121.59;;;29.10;16.49
79378;BME280;68959;53.132;17.984;2023-05-07T12:13:43;102119.54;;;28.78;16.47
79378;BME280;68959;53.132;17.984;2023-05-07T12:16:10;102124.27;;;27.45;17.39
79378;BME280;68959;53.132;17.984;2023-05-07T12:18:37;102127.53;;;26.22;18.47
79378;BME280;68959;53.132;17.984;2023-05-07T12:21:04;102127.21;;;26.44;18.31
79378;BME280;68959;53.132;17.984;2023-05-07T12:23:30;102120.31;;;27.96;17.24
79378;BME280;68959;53.132;17.984;2023-05-07T12:25:56;102116.05;;;29.98;15.75
79378;BME280;68959;53.132;17.984;2023-05-07T12:28:23;102096.04;;;31.44;14.66
79378;BME280;68959;53.132;17.984;2023-05-07T12:30:50;102111.92;;;30.35;14.35
79378;BME280;68959;53.132;17.984;2023-05-07T12:33:18;102117.33;;;27.76;15.98
79378;BME280;68959;53.132;17.984;2023-05-07T12:35:44;102114.10;;;28.90;15.77
79378;BME280;68959;53.132;17.984;2023-05-07T12:38:15;102115.70;;;30.46;14.78
79378;BME280;68959;53.132;17.984;2023-05-07T12:40:44;102112.44;;;31.61;13.47
79378;BME280;68959;53.132;17.984;2023-05-07T12:43:27;102104.61;;;32.85;13.68
79378;BME280;68959;53.132;17.984;2023-05-07T12:45:58;102105.83;;;32.96;12.01
79378;BME280;68959;53.132;17.984;2023-05-07T12:48:25;102109.11;;;32.91;12.42
79378;BME280;68959;53.132;17.984;2023-05-07T12:50:55;102114.75;;;31.88;12.64
79378;BME280;68959;53.132;17.984;2023-05-07T12:53:23;102118.14;;;31.01;12.99
79378;BME280;68959;53.132;17.984;2023-05-07T12:55:55;102117.21;;;31.36;12.99
79378;BME280;68959;53.132;17.984;2023-05-07T12:58:29;102123.42;;;31.00;12.90
79378;BME280;68959;53.132;17.984;2023-05-07T13:00:59;102118.46;;;31.26;13.04
79378;BME280;68959;53.132;17.984;2023-05-07T13:05:55;102111.52;;;30.38;13.69
79378;BME280;68959;53.132;17.984;2023-05-07T13:08:36;102109.54;;;30.72;13.49